createdAt,value
2022-08-14T00:03:40.478Z,25.50
2022-08-14T00:08:45.793Z,25.50
2022-08-14T00:13:52.444Z,25.20
2022-08-14T00:19:06.565Z,25.20
2022-08-14T00:24:28.106Z,25.20
2022-08-14T00:29:40.564Z,25.30
2022-08-14T00:34:46.741Z,25.30
2022-08-14T00:39:52.068Z,25.10
2022-08-14T00:44:56.121Z,25.20
2022-08-14T00:49:59.349Z,25.20
2022-08-14T00:55:06.688Z,25.10
2022-08-14T01:00:34.294Z,25.00
2022-08-14T01:05:41.742Z,24.90
2022-08-14T01:10:58.139Z,24.70
2022-08-14T01:16:05.746Z,24.70
2022-08-14T01:21:15.913Z,24.70
2022-08-14T01:26:35.254Z,24.60
2022-08-14T01:31:44.260Z,24.60
2022-08-14T01:36:54.140Z,24.60
2022-08-14T01:42:01.019Z,24.60
2022-08-14T01:47:16.519Z,24.50
2022-08-14T01:52:33.977Z,24.50
2022-08-14T01:58:01.663Z,24.40
2022-08-14T02:03:13.352Z,24.40
2022-08-14T02:08:22.516Z,24.20
2022-08-14T02:13:40.252Z,24.10
2022-08-14T02:18:47.246Z,24.00
2022-08-14T02:23:54.347Z,24.10
2022-08-14T02:29:03.365Z,24.00
2022-08-14T02:34:22.509Z,23.90
2022-08-14T02:39:31.517Z,23.90
2022-08-14T02:44:39.652Z,23.70
2022-08-14T02:49:43.281Z,23.60
2022-08-14T02:54:46.725Z,23.60
2022-08-14T02:59:52.745Z,23.50
2022-08-14T03:04:56.036Z,23.50
2022-08-14T03:10:27.762Z,23.40
2022-08-14T03:15:23.740Z,23.40
2022-08-14T03:20:29.271Z,23.30
2022-08-14T03:25:33.378Z,23.20
2022-08-14T03:30:39.339Z,23.20
2022-08-14T03:36:05.645Z,23.20
2022-08-14T03:41:14.347Z,23.20
2022-08-14T03:46:51.750Z,23.00
2022-08-14T03:51:44.132Z,23.00
2022-08-14T03:56:50.150Z,23.00
2022-08-14T04:02:01.171Z,22.90
2022-08-14T04:07:05.472Z,22.80
2022-08-14T04:12:13.341Z,22.80
2022-08-14T04:17:18.858Z,22.60
2022-08-14T04:22:23.716Z,22.50
2022-08-14T04:27:27.698Z,22.70
2022-08-14T04:32:57.335Z,22.80
2022-08-14T04:38:37.184Z,22.80
2022-08-14T04:43:39.284Z,22.70
2022-08-14T04:48:51.416Z,22.60
2022-08-14T04:53:59.535Z,22.60
2022-08-14T04:59:09.472Z,22.90
2022-08-14T05:04:16.257Z,22.80
2022-08-14T05:09:19.678Z,23.00
2022-08-14T05:14:45.893Z,23.10
2022-08-14T05:21:54.135Z,23.00
2022-08-14T05:25:13.624Z,23.20
2022-08-14T05:30:18.375Z,23.20
2022-08-14T05:35:22.812Z,23.20
2022-08-14T05:40:26.958Z,23.30
2022-08-14T05:45:30.318Z,23.70
2022-08-14T05:50:38.085Z,24.00
2022-08-14T05:55:42.728Z,23.80
2022-08-14T06:00:49.069Z,23.70
2022-08-14T06:05:56.403Z,24.10
2022-08-14T06:11:03.592Z,24.30
2022-08-14T06:16:07.442Z,24.40
2022-08-14T06:21:15.783Z,24.60
2022-08-14T06:26:22.385Z,24.80
2022-08-14T06:31:25.826Z,24.90
2022-08-14T06:36:30.605Z,25.20
2022-08-14T06:41:56.733Z,25.40
2022-08-14T06:46:57.159Z,25.50
2022-08-14T06:52:01.837Z,25.70
2022-08-14T06:57:05.181Z,25.40
2022-08-14T07:02:28.925Z,26.10
2022-08-14T07:07:39.259Z,26.20
2022-08-14T07:13:00.940Z,26.60
2022-08-14T07:18:08.815Z,26.50
2022-08-14T07:23:20.591Z,26.90
2022-08-14T07:28:26.643Z,27.10
2022-08-14T07:33:31.888Z,27.30
2022-08-14T07:38:38.233Z,27.40
2022-08-14T07:43:42.744Z,27.30
2022-08-14T07:48:48.482Z,27.30
2022-08-14T07:53:56.844Z,27.40
2022-08-14T07:59:00.624Z,27.40
2022-08-14T08:04:11.034Z,27.40
2022-08-14T08:09:31.706Z,27.70
2022-08-14T08:14:56.765Z,28.00
2022-08-14T08:19:59.588Z,28.50
2022-08-14T08:25:06.450Z,28.90
2022-08-14T08:30:16.795Z,29.00
2022-08-14T08:35:23.531Z,28.90
2022-08-14T08:40:31.370Z,29.20
2022-08-14T08:45:36.016Z,29.00
2022-08-14T08:55:46.099Z,29.60
2022-08-14T09:00:54.423Z,29.70
2022-08-14T09:06:01.234Z,29.90
2022-08-14T09:11:19.379Z,30.40
2022-08-14T09:16:26.491Z,30.40
2022-08-14T09:21:31.390Z,30.80
2022-08-14T09:26:37.676Z,30.70
2022-08-14T09:31:53.467Z,30.90
2022-08-14T09:37:18.823Z,31.00
2022-08-14T09:42:36.234Z,31.10
2022-08-14T09:47:52.160Z,31.20
2022-08-14T09:52:58.876Z,31.50
2022-08-14T09:58:20.049Z,31.90
2022-08-14T10:03:30.302Z,31.90
2022-08-14T10:08:45.322Z,31.50
2022-08-14T10:13:59.164Z,31.50
2022-08-14T10:19:12.085Z,31.20
2022-08-14T10:24:36.121Z,31.00
2022-08-14T10:29:45.742Z,31.10
2022-08-14T10:34:52.541Z,31.00
2022-08-14T10:40:05.721Z,31.10
2022-08-14T10:45:24.411Z,31.30
2022-08-14T10:50:34.004Z,31.20
2022-08-14T10:55:45.608Z,31.30
2022-08-14T11:00:58.920Z,30.90
2022-08-14T11:06:20.120Z,30.90
2022-08-14T11:11:28.574Z,30.80
2022-08-14T11:16:41.471Z,30.90
2022-08-14T11:21:58.197Z,30.70
2022-08-14T11:27:02.570Z,30.80
2022-08-14T11:32:09.587Z,30.80
2022-08-14T11:37:22.863Z,30.80
2022-08-14T11:42:56.328Z,30.90
2022-08-14T11:48:12.860Z,30.80
2022-08-14T11:53:22.998Z,30.80
2022-08-14T11:58:28.588Z,30.60
2022-08-14T12:03:51.368Z,30.50
2022-08-14T12:08:59.787Z,30.60
2022-08-14T12:14:13.203Z,30.50
2022-08-14T12:19:45.928Z,30.60
2022-08-14T12:24:54.896Z,30.50
2022-08-14T12:29:59.962Z,30.50
2022-08-14T12:35:05.325Z,30.60
2022-08-14T12:40:19.488Z,30.70
2022-08-14T12:45:33.264Z,30.60
2022-08-14T12:50:39.816Z,30.70
2022-08-14T12:56:21.490Z,30.70
2022-08-14T13:01:16.907Z,30.80
2022-08-14T13:06:23.214Z,30.70
2022-08-14T13:11:31.248Z,30.80
2022-08-14T13:16:38.871Z,30.70
2022-08-14T13:22:05.314Z,30.70
2022-08-14T13:27:12.545Z,30.80
2022-08-14T13:32:16.226Z,30.90
2022-08-14T13:37:21.395Z,30.90
2022-08-14T13:42:35.380Z,30.80
2022-08-14T13:47:42.373Z,30.80
2022-08-14T13:52:55.051Z,30.70
2022-08-14T13:58:04.479Z,30.60
2022-08-14T14:03:09.177Z,30.70
2022-08-14T14:08:18.960Z,30.80
2022-08-14T14:13:44.619Z,30.80
2022-08-14T14:18:52.009Z,30.90
2022-08-14T14:23:58.058Z,31.00
2022-08-14T14:29:03.155Z,30.90
2022-08-14T14:34:20.162Z,30.80
2022-08-14T14:39:35.196Z,30.90
2022-08-14T14:44:41.665Z,30.90
2022-08-14T14:49:54.944Z,30.90
2022-08-14T14:55:00.152Z,30.90
2022-08-14T15:00:04.015Z,30.80
2022-08-14T15:05:09.366Z,30.90
2022-08-14T15:10:27.862Z,30.90
2022-08-14T15:15:36.915Z,30.90
2022-08-14T15:20:40.927Z,30.80
2022-08-14T15:25:52.946Z,30.80
2022-08-14T15:30:59.100Z,30.80
2022-08-14T15:36:04.419Z,30.70
2022-08-14T15:41:41.667Z,30.60
2022-08-14T15:46:45.623Z,30.70
2022-08-14T15:51:51.045Z,30.70
2022-08-14T15:57:00.718Z,30.60
2022-08-14T16:02:04.213Z,30.60
2022-08-14T16:07:08.987Z,30.60
2022-08-14T16:12:13.674Z,30.50
2022-08-14T16:17:20.181Z,30.50
2022-08-14T16:22:57.604Z,30.50
2022-08-14T16:27:48.500Z,30.50
2022-08-14T16:32:56.651Z,30.40
2022-08-14T16:38:44.570Z,30.50
2022-08-14T16:43:26.057Z,30.50
2022-08-14T16:48:54.844Z,30.40
2022-08-14T16:53:54.630Z,30.30
2022-08-14T16:59:12.058Z,30.30
2022-08-14T17:04:25.278Z,30.20
2022-08-14T17:09:48.599Z,30.20
2022-08-14T17:14:57.501Z,30.20
2022-08-14T17:20:02.210Z,30.20
2022-08-14T17:25:12.220Z,30.20
2022-08-14T17:30:31.965Z,30.10
2022-08-14T17:35:57.629Z,30.10
2022-08-14T17:41:18.571Z,30.00
2022-08-14T17:46:37.588Z,29.90
2022-08-14T17:52:03.743Z,29.90
2022-08-14T17:57:13.961Z,29.90
2022-08-14T18:02:22.552Z,29.80
2022-08-14T18:07:59.374Z,29.80
2022-08-14T18:12:59.431Z,29.80
2022-08-14T18:18:06.868Z,29.60
2022-08-14T18:23:13.761Z,29.50
2022-08-14T18:28:47.857Z,29.40
2022-08-14T18:33:52.772Z,29.20
2022-08-14T18:39:22.891Z,29.20
2022-08-14T18:45:12.598Z,29.00
2022-08-14T18:50:27.507Z,28.90
2022-08-14T18:55:54.063Z,28.70
2022-08-14T19:01:00.211Z,28.60
2022-08-14T19:06:07.167Z,28.50
2022-08-14T19:11:45.136Z,28.50
2022-08-14T19:16:54.331Z,28.40
2022-08-14T19:21:59.012Z,28.30
2022-08-14T19:27:19.125Z,28.20
2022-08-14T19:32:40.755Z,28.10
2022-08-14T19:37:52.182Z,28.10
2022-08-14T19:42:58.349Z,28.10
2022-08-14T19:48:02.892Z,28.00
2022-08-14T19:53:11.416Z,28.00
2022-08-14T19:58:15.159Z,28.10
2022-08-14T20:03:23.251Z,28.00
2022-08-14T20:09:05.987Z,28.10
2022-08-14T20:14:10.254Z,28.00
2022-08-14T20:19:16.339Z,27.90
2022-08-14T20:24:41.084Z,27.90
2022-08-14T20:29:45.555Z,27.90
2022-08-14T20:34:51.577Z,27.90
2022-08-14T20:39:56.415Z,27.80
